Harbor Captain — WDB3863 — position and weather

sailwx.info

Track history (hours):
 
Tides and Currents Weather Stations Pressure Air Temp Water Temp Dewpoint Dewpoint Depression Visibility Wind Speed Wind Dir Waves Ship Positions

Harbor Captain

Owner: PACIFIC TUGBOAT SERVICE INC, SAN DIEGO, CA. More information available from US FCC via Universal Licensing System and Coast Guard Vessel Documentation Center.

Last reported at 2017-Oct-18 16:20 UTC. Time now 2017-Oct-22 06:36 UTC.
Position N 32°38' W 117°06'.

Length 13 m; draft 2.2 m.

Type: Tug. MMSI: 366892140.

Date/timePositionNaut miles runAvg speedWind from/ knotsBaromVisibWave heightAir tempDewpointWater temp
2017-Oct-18 16:20N 32°38' W 117°06'0 0.0
2017-Oct-18 15:15N 32°38' W 117°06'0 0.0
2017-Oct-18 14:53N 32°38' W 117°06'4 0.4
2017-Oct-18 04:33N 32°42' W 117°09'0 0.3
2017-Oct-18 04:13N 32°42' W 117°09'  
2017-Oct-12 20:45N 32°42' W 117°09'0 0.5
2017-Oct-12 20:30N 32°42' W 117°09'0 0.1
2017-Oct-12 17:02N 32°41' W 117°09'0 0.3
2017-Oct-12 15:48N 32°42' W 117°09'0 0.0
2017-Oct-11 20:23N 32°42' W 117°09'2 3.3
2017-Oct-11 19:55N 32°43' W 117°11'0 0.2
2017-Oct-11 19:30N 32°43' W 117°11'0 0.6
2017-Oct-11 18:52N 32°43' W 117°11'0 1.2
2017-Oct-11 18:27N 32°43' W 117°11'0 0.0
2017-Oct-10 23:08N 32°42' W 117°10'1 7.4
2017-Oct-10 23:00N 32°43' W 117°12'2 3.7
2017-Oct-10 22:30N 32°43' W 117°14'0 0.3
2017-Oct-10 21:43N 32°43' W 117°14'0 0.0
2017-Oct-10 21:17N 32°43' W 117°14'0 0.0
2017-Oct-10 21:00N 32°43' W 117°14'0 0.0
2017-Oct-10 20:30N 32°43' W 117°14'0 0.0
2017-Oct-10 20:00N 32°43' W 117°14'0 0.0
2017-Oct-10 19:30N 32°43' W 117°14'0 0.0
2017-Oct-10 19:00N 32°43' W 117°14'1 1.5
2017-Oct-10 18:30N 32°43' W 117°13'3 3.5
2017-Oct-10 17:33N 32°42' W 117°09'0 0.0
2017-Oct-10 17:27N 32°42' W 117°09'0 0.0
2017-Oct-10 16:35N 32°42' W 117°09'0 0.0
2017-Oct-10 16:29N 32°42' W 117°09'0 0.0
2017-Oct-10 14:50N 32°42' W 117°09'  
Track history (hours):
 
Tides and Currents Weather Stations Pressure Air Temp Water Temp Dewpoint Dewpoint Depression Visibility Wind Speed Wind Dir Waves Ship Positions

Harbor Captain

Owner: PACIFIC TUGBOAT SERVICE INC, SAN DIEGO, CA. More information available from US FCC via Universal Licensing System and Coast Guard Vessel Documentation Center.

Last reported at 2017-Oct-18 16:20 UTC. Time now 2017-Oct-22 06:36 UTC.
Position N 32°38' W 117°06'.

Length 13 m; draft 2.2 m.

Type: Tug. MMSI: 366892140.

Date/timePositionNaut miles runAvg speedWind from/ knotsBaromVisibWave heightAir tempDewpointWater temp
2017-Oct-18 16:20N 32°38' W 117°06'0 0.0
2017-Oct-18 15:15N 32°38' W 117°06'0 0.0
2017-Oct-18 14:53N 32°38' W 117°06'4 0.4
2017-Oct-18 04:33N 32°42' W 117°09'0 0.3
2017-Oct-18 04:13N 32°42' W 117°09'  
2017-Oct-12 20:45N 32°42' W 117°09'0 0.5
2017-Oct-12 20:30N 32°42' W 117°09'0 0.1
2017-Oct-12 17:02N 32°41' W 117°09'0 0.3
2017-Oct-12 15:48N 32°42' W 117°09'0 0.0
2017-Oct-11 20:23N 32°42' W 117°09'2 3.3
2017-Oct-11 19:55N 32°43' W 117°11'0 0.2
2017-Oct-11 19:30N 32°43' W 117°11'0 0.6
2017-Oct-11 18:52N 32°43' W 117°11'0 1.2
2017-Oct-11 18:27N 32°43' W 117°11'0 0.0
2017-Oct-10 23:08N 32°42' W 117°10'1 7.4
2017-Oct-10 23:00N 32°43' W 117°12'2 3.7
2017-Oct-10 22:30N 32°43' W 117°14'0 0.3
2017-Oct-10 21:43N 32°43' W 117°14'0 0.0
2017-Oct-10 21:17N 32°43' W 117°14'0 0.0
2017-Oct-10 21:00N 32°43' W 117°14'0 0.0
2017-Oct-10 20:30N 32°43' W 117°14'0 0.0
2017-Oct-10 20:00N 32°43' W 117°14'0 0.0
2017-Oct-10 19:30N 32°43' W 117°14'0 0.0
2017-Oct-10 19:00N 32°43' W 117°14'1 1.5
2017-Oct-10 18:30N 32°43' W 117°13'3 3.5
2017-Oct-10 17:33N 32°42' W 117°09'0 0.0
2017-Oct-10 17:27N 32°42' W 117°09'0 0.0
2017-Oct-10 16:35N 32°42' W 117°09'0 0.0
2017-Oct-10 16:29N 32°42' W 117°09'0 0.0
2017-Oct-10 14:50N 32°42' W 117°09'  

Dump ship's entire track history